Costa Fascinosa — ICPO — position and weather

sailwx.info

Track history (hours):
 
Tides and Currents Weather Stations Pressure Air Temp Water Temp Dewpoint Dewpoint Depression Visibility Wind Speed Wind Dir Waves Ship Positions

Costa Fascinosa

Last reported at 2019-Nov-20 08:30 UTC. Time now 2019-Nov-20 09:15 UTC.
Position N 37°56' W 000°15'.

Length 290 m; draft 8.3 m.

Type: Passenger vessel. MMSI: 247313500.

Date/timePositionNaut miles runAvg speedWind from/ knotsBaromVisibWave heightAir tempDewpointWater temp
2019-Nov-20 08:30N 37°56' W 000°15'20814.8
2019-Nov-19 18:30N 40°57' E 001°57'611.9
2019-Nov-19 18:00N 41°02' E 002°01'1811.7
2019-Nov-19 16:30N 41°18' E 002°10'21 1.7
2019-Nov-19 04:30N 41°23' E 002°37'16810.2
2019-Nov-18 12:07N 43°21' E 005°20'63 5.6
2019-Nov-18 00:50N 43°01' E 006°42'1713.1
2019-Nov-17 23:30N 43°11' E 007°01'612.2
2019-Nov-17 23:01N 43°15' E 007°08'1515.0
2019-Nov-17 22:01N 43°24' E 007°25'3115.3
2019-Nov-17 20:00N 43°42' E 007°58'3514.1
2019-Nov-17 17:30N 44°09' E 008°30'511.0
2019-Nov-17 17:00N 44°14' E 008°34'6 0.6
2019-Nov-17 07:27N 44°19' E 008°29'28 9.5
2019-Nov-17 04:31N 43°53' E 008°14'917.7
2019-Nov-17 04:01N 43°46' E 008°07'918.0
2019-Nov-17 03:30N 43°40' E 007°57'4019.9
2019-Nov-17 01:30N 43°17' E 007°13'21120.4
2019-Nov-16 15:09N 41°33' E 003°03'42 4.7
2019-Nov-16 06:22N 41°21' E 002°10'3712.7
2019-Nov-16 03:28N 41°34' E 002°56'917.0
2019-Nov-16 02:58N 41°38' E 003°06'201 7.5
2019-Nov-15 00:01N 43°14' E 007°05'2517.0
2019-Nov-14 22:31N 43°29' E 007°34'4013.2
2019-Nov-14 19:30N 43°53' E 008°17'713.0
2019-Nov-14 18:58N 43°59' E 008°22'612.9
2019-Nov-14 18:30N 44°04' E 008°26'612.6
2019-Nov-14 18:00N 44°10' E 008°31'611.2
2019-Nov-14 17:30N 44°15' E 008°33'4 0.6
2019-Nov-14 10:28N 44°19' E 008°29'2 0.5
2019-Nov-14 06:30N 44°18' E 008°32'4016.2
2019-Nov-14 04:00N 43°44' E 008°02'3216.1
2019-Nov-14 02:01N 43°25' E 007°26'4517.6
2019-Nov-13 23:28N 42°59' E 006°36'  
Track history (hours):
 
Tides and Currents Weather Stations Pressure Air Temp Water Temp Dewpoint Dewpoint Depression Visibility Wind Speed Wind Dir Waves Ship Positions

Costa Fascinosa

Last reported at 2019-Nov-20 08:30 UTC. Time now 2019-Nov-20 09:15 UTC.
Position N 37°56' W 000°15'.

Length 290 m; draft 8.3 m.

Type: Passenger vessel. MMSI: 247313500.

Date/timePositionNaut miles runAvg speedWind from/ knotsBaromVisibWave heightAir tempDewpointWater temp
2019-Nov-20 08:30N 37°56' W 000°15'20814.8
2019-Nov-19 18:30N 40°57' E 001°57'611.9
2019-Nov-19 18:00N 41°02' E 002°01'1811.7
2019-Nov-19 16:30N 41°18' E 002°10'21 1.7
2019-Nov-19 04:30N 41°23' E 002°37'16810.2
2019-Nov-18 12:07N 43°21' E 005°20'63 5.6
2019-Nov-18 00:50N 43°01' E 006°42'1713.1
2019-Nov-17 23:30N 43°11' E 007°01'612.2
2019-Nov-17 23:01N 43°15' E 007°08'1515.0
2019-Nov-17 22:01N 43°24' E 007°25'3115.3
2019-Nov-17 20:00N 43°42' E 007°58'3514.1
2019-Nov-17 17:30N 44°09' E 008°30'511.0
2019-Nov-17 17:00N 44°14' E 008°34'6 0.6
2019-Nov-17 07:27N 44°19' E 008°29'28 9.5
2019-Nov-17 04:31N 43°53' E 008°14'917.7
2019-Nov-17 04:01N 43°46' E 008°07'918.0
2019-Nov-17 03:30N 43°40' E 007°57'4019.9
2019-Nov-17 01:30N 43°17' E 007°13'21120.4
2019-Nov-16 15:09N 41°33' E 003°03'42 4.7
2019-Nov-16 06:22N 41°21' E 002°10'3712.7
2019-Nov-16 03:28N 41°34' E 002°56'917.0
2019-Nov-16 02:58N 41°38' E 003°06'201 7.5
2019-Nov-15 00:01N 43°14' E 007°05'2517.0
2019-Nov-14 22:31N 43°29' E 007°34'4013.2
2019-Nov-14 19:30N 43°53' E 008°17'713.0
2019-Nov-14 18:58N 43°59' E 008°22'612.9
2019-Nov-14 18:30N 44°04' E 008°26'612.6
2019-Nov-14 18:00N 44°10' E 008°31'611.2
2019-Nov-14 17:30N 44°15' E 008°33'4 0.6
2019-Nov-14 10:28N 44°19' E 008°29'2 0.5
2019-Nov-14 06:30N 44°18' E 008°32'4016.2
2019-Nov-14 04:00N 43°44' E 008°02'3216.1
2019-Nov-14 02:01N 43°25' E 007°26'4517.6
2019-Nov-13 23:28N 42°59' E 006°36'  

Dump ship's entire track history